Time;durP1;ratioP1;P1;durP2;ratioP2;P2;SDS_P1;SDS_P2;PMS_P1;PMS_P2;Temp;Humidity;BMP_temperature;BMP_pressure;BME280_temperature;BME280_humidity;BME280_pressure;Samples;Min_cycle;Max_cycle;Signal;HPM_P1;HPM_P2
2022/10/08 00:01:19;;;;;;;1.60;1.58;;;;;;;;;;10460755;28;20768;-68
2022/10/08 00:06:25;;;;;;;2.47;1.67;;;;;;;;;;10462046;28;20258;-68
2022/10/08 00:11:36;;;;;;;2.85;1.77;;;;;;;;;;10455499;28;20233;-68
2022/10/08 00:16:38;;;;;;;2.67;2.08;;;;;;;;;;10456413;28;20241;-69
2022/10/08 00:21:41;;;;;;;4.13;2.53;;;;;;;;;;10448648;28;20214;-69
2022/10/08 00:26:43;;;;;;;3.38;2.03;;;;;;;;;;10458444;28;20214;-69
2022/10/08 00:31:45;;;;;;;2.45;1.70;;;;;;;;;;10455979;28;20236;-69
2022/10/08 00:36:49;;;;;;;2.45;2.28;;;;;;;;;;10454785;28;20226;-69
2022/10/08 00:41:52;;;;;;;3.30;2.17;;;;;;;;;;10460022;28;20260;-69
2022/10/08 00:46:53;;;;;;;2.10;1.98;;;;;;;;;;10458252;28;20336;-69
2022/10/08 00:51:55;;;;;;;2.38;1.73;;;;;;;;;;10457840;28;20214;-69
2022/10/08 00:56:56;;;;;;;1.30;1.30;;;;;;;;;;10460777;28;20227;-69
2022/10/08 01:01:57;;;;;;;1.33;1.30;;;;;;;;;;10458851;28;20630;-68
2022/10/08 01:07:11;;;;;;;1.67;1.58;;;;;;;;;;10463491;28;20222;-68
2022/10/08 01:12:27;;;;;;;1.65;1.65;;;;;;;;;;10457364;28;20551;-69
2022/10/08 01:17:41;;;;;;;1.80;1.45;;;;;;;;;;10460323;28;20321;-69
2022/10/08 01:22:43;;;;;;;3.05;1.92;;;;;;;;;;10456962;28;20310;-69
2022/10/08 01:27:46;;;;;;;5.38;1.95;;;;;;;;;;10450979;28;20222;-69
2022/10/08 01:33:02;;;;;;;1.95;1.60;;;;;;;;;;10442062;28;20218;-69
2022/10/08 01:38:05;;;;;;;4.30;2.00;;;;;;;;;;10461403;28;20276;-69
2022/10/08 01:43:08;;;;;;;1.48;1.38;;;;;;;;;;10456678;28;21031;-68
2022/10/08 01:48:14;;;;;;;2.25;1.27;;;;;;;;;;10461192;28;20215;-68
2022/10/08 01:53:17;;;;;;;1.65;1.50;;;;;;;;;;10453439;28;20698;-68
2022/10/08 01:58:24;;;;;;;2.00;1.80;;;;;;;;;;10461782;28;20824;-69
2022/10/08 02:03:25;;;;;;;3.72;1.65;;;;;;;;;;10455462;28;20244;-69
2022/10/08 02:08:27;;;;;;;1.63;1.52;;;;;;;;;;10451372;28;20225;-68
2022/10/08 02:13:29;;;;;;;4.13;1.20;;;;;;;;;;10448734;28;20309;-69
2022/10/08 02:18:36;;;;;;;1.55;1.45;;;;;;;;;;10453381;28;20866;-69
2022/10/08 02:23:39;;;;;;;1.52;1.50;;;;;;;;;;10453070;28;20221;-69
2022/10/08 02:28:58;;;;;;;1.45;1.35;;;;;;;;;;10457097;28;20225;-69
2022/10/08 02:34:08;;;;;;;1.50;1.20;;;;;;;;;;10449885;28;20222;-69
2022/10/08 02:39:10;;;;;;;2.60;1.63;;;;;;;;;;10456060;28;20222;-69
2022/10/08 02:44:16;;;;;;;5.65;1.60;;;;;;;;;;10453015;28;20284;-69
2022/10/08 02:49:25;;;;;;;1.75;1.35;;;;;;;;;;10450829;28;20635;-69
2022/10/08 02:54:26;;;;;;;1.38;1.15;;;;;;;;;;10454078;28;20272;-69
2022/10/08 02:59:27;;;;;;;3.83;1.40;;;;;;;;;;10460229;28;20755;-68
2022/10/08 03:04:31;;;;;;;2.40;1.27;;;;;;;;;;10452116;28;20222;-68
2022/10/08 03:09:35;;;;;;;1.27;1.27;;;;;;;;;;10454758;28;20744;-69
2022/10/08 03:14:44;;;;;;;1.15;1.15;;;;;;;;;;10457422;28;20573;-69
2022/10/08 03:19:45;;;;;;;1.33;1.27;;;;;;;;;;10438661;28;20230;-69
2022/10/08 03:24:46;;;;;;;3.20;1.10;;;;;;;;;;10458095;28;20206;-69
2022/10/08 03:29:47;;;;;;;2.47;1.10;;;;;;;;;;10460884;28;21982;-69
2022/10/08 03:34:48;;;;;;;1.10;1.05;;;;;;;;;;10458820;28;20625;-69
2022/10/08 03:39:50;;;;;;;1.13;1.08;;;;;;;;;;10458475;28;20231;-69
2022/10/08 03:44:52;;;;;;;1.33;1.23;;;;;;;;;;10461479;28;20226;-69
2022/10/08 03:49:53;;;;;;;1.40;1.13;;;;;;;;;;10459925;28;20225;-69
2022/10/08 03:54:54;;;;;;;1.42;1.33;;;;;;;;;;10455516;28;20591;-69
2022/10/08 03:59:55;;;;;;;1.42;1.25;;;;;;;;;;10456821;28;20219;-69
2022/10/08 04:04:56;;;;;;;2.60;1.67;;;;;;;;;;10457683;28;20214;-69
2022/10/08 04:09:57;;;;;;;2.83;1.45;;;;;;;;;;10456281;28;20218;-69
2022/10/08 04:14:58;;;;;;;1.25;1.25;;;;;;;;;;10456299;28;20254;-69
2022/10/08 04:19:59;;;;;;;1.95;1.55;;;;;;;;;;10456649;28;20242;-69
2022/10/08 04:25:00;;;;;;;1.50;1.38;;;;;;;;;;10456121;28;20214;-69
2022/10/08 04:30:02;;;;;;;1.88;1.73;;;;;;;;;;10460334;28;20218;-69
2022/10/08 04:35:03;;;;;;;1.60;1.27;;;;;;;;;;10453792;28;20341;-69
2022/10/08 04:40:04;;;;;;;1.33;1.25;;;;;;;;;;10451618;28;20622;-69
2022/10/08 04:45:05;;;;;;;1.75;1.40;;;;;;;;;;10460423;28;20236;-69
2022/10/08 04:50:06;;;;;;;1.38;1.38;;;;;;;;;;10454853;28;20210;-69
2022/10/08 04:55:08;;;;;;;1.15;1.15;;;;;;;;;;10453055;28;20198;-69
2022/10/08 05:00:09;;;;;;;2.20;1.45;;;;;;;;;;10456988;28;20225;-68
2022/10/08 05:05:10;;;;;;;1.17;1.15;;;;;;;;;;10452296;28;20183;-68
2022/10/08 05:10:11;;;;;;;1.25;1.25;;;;;;;;;;10454729;28;20198;-69
2022/10/08 05:15:12;;;;;;;1.20;0.90;;;;;;;;;;10457194;28;20696;-68
2022/10/08 05:20:14;;;;;;;2.40;1.45;;;;;;;;;;10454719;28;20213;-69
2022/10/08 05:25:15;;;;;;;1.23;1.00;;;;;;;;;;10452367;28;20269;-68
2022/10/08 05:30:16;;;;;;;3.42;1.45;;;;;;;;;;10455544;28;20555;-69
2022/10/08 05:35:17;;;;;;;2.58;1.33;;;;;;;;;;10453439;28;20777;-68
2022/10/08 05:40:19;;;;;;;1.38;1.38;;;;;;;;;;10452174;28;20260;-68
2022/10/08 05:45:20;;;;;;;1.95;1.35;;;;;;;;;;10452123;28;20274;-68
2022/10/08 05:50:21;;;;;;;2.20;1.88;;;;;;;;;;10455176;28;20191;-69
2022/10/08 05:55:23;;;;;;;2.65;1.40;;;;;;;;;;10453157;28;20320;-69
2022/10/08 06:00:24;;;;;;;2.25;1.45;;;;;;;;;;10448321;28;20276;-68
2022/10/08 06:05:25;;;;;;;2.90;2.25;;;;;;;;;;10457801;28;20206;-68
2022/10/08 06:10:26;;;;;;;3.05;1.83;;;;;;;;;;10456772;28;20272;-68
2022/10/08 06:15:27;;;;;;;2.65;2.10;;;;;;;;;;10462438;28;21235;-68
2022/10/08 06:20:28;;;;;;;3.63;2.05;;;;;;;;;;10457686;28;20625;-67
2022/10/08 06:25:29;;;;;;;1.45;1.33;;;;;;;;;;10456248;28;23539;-67
2022/10/08 06:30:31;;;;;;;3.22;1.60;;;;;;;;;;10455446;28;20691;-68
2022/10/08 06:35:33;;;;;;;3.63;1.38;;;;;;;;;;10454328;28;20226;-67
2022/10/08 06:40:39;;;;;;;1.60;1.50;;;;;;;;;;10458485;28;20227;-68
2022/10/08 06:45:40;;;;;;;4.10;1.42;;;;;;;;;;10455755;28;20812;-68
2022/10/08 06:50:42;;;;;;;1.98;1.55;;;;;;;;;;10459659;28;20261;-69
2022/10/08 06:55:43;;;;;;;5.28;1.52;;;;;;;;;;10458814;28;20265;-68
2022/10/08 07:00:44;;;;;;;2.42;1.55;;;;;;;;;;10455753;28;20268;-69
2022/10/08 07:05:45;;;;;;;5.80;1.52;;;;;;;;;;10454887;28;20221;-69
2022/10/08 07:10:46;;;;;;;1.60;1.50;;;;;;;;;;10451302;28;20763;-69
2022/10/08 07:15:47;;;;;;;2.40;1.48;;;;;;;;;;10452541;28;20306;-70
2022/10/08 07:20:54;;;;;;;2.40;1.08;;;;;;;;;;10452838;28;20230;-68
2022/10/08 07:25:59;;;;;;;6.18;1.35;;;;;;;;;;10455205;28;20214;-70
2022/10/08 07:31:07;;;;;;;2.75;1.20;;;;;;;;;;10452738;28;20241;-69
2022/10/08 07:36:10;;;;;;;2.92;1.83;;;;;;;;;;10449133;28;20215;-69
2022/10/08 07:41:12;;;;;;;1.95;1.42;;;;;;;;;;10453790;28;20235;-70
2022/10/08 07:46:13;;;;;;;2.53;0.90;;;;;;;;;;10456329;28;20245;-70
2022/10/08 07:51:18;;;;;;;3.00;1.55;;;;;;;;;;10453843;28;20221;-70
2022/10/08 07:56:20;;;;;;;3.90;1.10;;;;;;;;;;10462836;28;20260;-70
2022/10/08 08:01:28;;;;;;;0.70;0.70;;;;;;;;;;10459077;28;20292;-69
2022/10/08 08:06:30;;;;;;;5.68;1.08;;;;;;;;;;10463127;28;20309;-70
2022/10/08 08:11:31;;;;;;;1.08;0.93;;;;;;;;;;10463260;28;20921;-70
2022/10/08 08:16:32;;;;;;;8.60;2.00;;;;;;;;;;10458129;28;20233;-69
2022/10/08 08:21:35;;;;;;;2.08;1.90;;;;;;;;;;10462888;28;20301;-69
2022/10/08 08:26:37;;;;;;;4.95;2.13;;;;;;;;;;10442033;28;20218;-70
2022/10/08 08:31:40;;;;;;;4.78;2.35;;;;;;;;;;10460556;28;20621;-69
2022/10/08 08:36:42;;;;;;;2.78;2.05;;;;;;;;;;10458911;28;20760;-69
2022/10/08 08:41:48;;;;;;;3.58;2.00;;;;;;;;;;10456980;28;20234;-70
2022/10/08 08:47:05;;;;;;;4.45;2.50;;;;;;;;;;10459634;28;20592;-68
2022/10/08 08:52:06;;;;;;;5.25;2.03;;;;;;;;;;10462024;28;20300;-68
2022/10/08 08:57:10;;;;;;;4.13;1.88;;;;;;;;;;10458922;28;20800;-68
2022/10/08 09:02:18;;;;;;;1.77;1.67;;;;;;;;;;10460906;28;20629;-68
2022/10/08 09:07:21;;;;;;;4.43;1.67;;;;;;;;;;10459375;28;20218;-68
2022/10/08 09:12:30;;;;;;;2.70;1.33;;;;;;;;;;10457406;28;20219;-69
2022/10/08 09:17:32;;;;;;;4.93;1.70;;;;;;;;;;10459768;28;20677;-69
2022/10/08 09:22:38;;;;;;;4.88;1.50;;;;;;;;;;10457432;28;20225;-69
2022/10/08 09:27:46;;;;;;;0.82;0.55;;;;;;;;;;10452695;28;20210;-69
2022/10/08 09:32:48;;;;;;;1.25;0.75;;;;;;;;;;10459445;28;20226;-70
2022/10/08 09:37:50;;;;;;;4.55;0.80;;;;;;;;;;10458654;28;20278;-69
2022/10/08 09:43:10;;;;;;;0.50;0.50;;;;;;;;;;10458453;28;20275;-69
2022/10/08 09:48:15;;;;;;;3.83;1.02;;;;;;;;;;10457912;28;20731;-69
2022/10/08 09:53:16;;;;;;;0.88;0.65;;;;;;;;;;10452570;28;20223;-69
2022/10/08 09:58:18;;;;;;;2.10;0.50;;;;;;;;;;10457615;28;20288;-69
2022/10/08 10:03:19;;;;;;;1.77;0.75;;;;;;;;;;10454761;28;20607;-69
2022/10/08 10:08:45;;;;;;;2.08;0.75;;;;;;;;;;10457274;28;20333;-69
2022/10/08 10:13:48;;;;;;;6.13;0.80;;;;;;;;;;10454280;28;20225;-69
2022/10/08 10:18:52;;;;;;;1.90;0.60;;;;;;;;;;10457622;28;20710;-69
2022/10/08 10:24:02;;;;;;;4.00;0.85;;;;;;;;;;10456059;28;21144;-70
2022/10/08 10:29:12;;;;;;;2.85;0.70;;;;;;;;;;10457168;28;20577;-69
2022/10/08 10:34:34;;;;;;;2.85;0.60;;;;;;;;;;10453829;28;20308;-70
2022/10/08 10:39:40;;;;;;;1.55;0.80;;;;;;;;;;10456271;28;20241;-69
2022/10/08 10:44:56;;;;;;;1.30;0.50;;;;;;;;;;10458638;28;20317;-69
2022/10/08 10:49:59;;;;;;;0.93;0.60;;;;;;;;;;10454183;28;20224;-69
2022/10/08 10:55:12;;;;;;;0.50;0.50;;;;;;;;;;10454289;28;20214;-69
2022/10/08 11:00:16;;;;;;;1.13;0.90;;;;;;;;;;10454195;28;21056;-68
2022/10/08 11:05:20;;;;;;;3.53;0.60;;;;;;;;;;10457156;28;20324;-68
2022/10/08 11:10:57;;;;;;;0.88;0.68;;;;;;;;;;10454790;28;20482;-70
2022/10/08 11:16:07;;;;;;;3.13;1.10;;;;;;;;;;10360346;28;20209;-70
2022/10/08 11:21:20;;;;;;;0.40;0.40;;;;;;;;;;10453925;28;20246;-69
2022/10/08 11:26:33;;;;;;;3.25;0.45;;;;;;;;;;10457155;28;20505;-69
2022/10/08 11:31:47;;;;;;;3.90;0.93;;;;;;;;;;10458129;28;20702;-70
2022/10/08 11:37:07;;;;;;;0.95;0.70;;;;;;;;;;10461625;28;20593;-70
2022/10/08 11:42:23;;;;;;;2.97;0.57;;;;;;;;;;10445740;28;20218;-69
2022/10/08 11:47:54;;;;;;;2.00;0.80;;;;;;;;;;10466196;28;20222;-69
2022/10/08 11:52:57;;;;;;;1.25;0.50;;;;;;;;;;10415488;28;20254;-69
2022/10/08 11:58:16;;;;;;;1.65;0.63;;;;;;;;;;10460909;28;20220;-69
2022/10/08 12:03:25;;;;;;;3.08;0.40;;;;;;;;;;10465712;28;20213;-69
2022/10/08 12:08:45;;;;;;;2.88;1.23;;;;;;;;;;10460316;28;20306;-70
2022/10/08 12:14:07;;;;;;;0.70;0.57;;;;;;;;;;10462329;28;20736;-70
2022/10/08 12:19:28;;;;;;;5.30;0.52;;;;;;;;;;10459821;28;20225;-69
2022/10/08 12:24:51;;;;;;;2.75;0.40;;;;;;;;;;10461474;28;20229;-70
2022/10/08 12:29:52;;;;;;;1.45;0.43;;;;;;;;;;10459874;28;20241;-70
2022/10/08 12:34:54;;;;;;;0.40;0.40;;;;;;;;;;10459578;28;20272;-70
2022/10/08 12:39:55;;;;;;;3.70;0.60;;;;;;;;;;10460282;28;20305;-70
2022/10/08 12:45:06;;;;;;;2.25;0.50;;;;;;;;;;10463129;28;20735;-70
2022/10/08 12:50:22;;;;;;;2.15;0.60;;;;;;;;;;10460797;28;20222;-70
2022/10/08 12:55:27;;;;;;;0.43;0.43;;;;;;;;;;10461243;28;20202;-69
2022/10/08 13:00:33;;;;;;;1.42;0.43;;;;;;;;;;10456347;28;20743;-69
2022/10/08 13:05:39;;;;;;;0.55;0.52;;;;;;;;;;10459148;28;20308;-69
2022/10/08 13:10:42;;;;;;;4.05;0.60;;;;;;;;;;10458805;28;20217;-70
2022/10/08 13:15:43;;;;;;;1.55;0.40;;;;;;;;;;10457577;28;20257;-69
2022/10/08 13:20:57;;;;;;;2.30;0.50;;;;;;;;;;10458038;28;20780;-70
2022/10/08 13:25:59;;;;;;;2.22;0.80;;;;;;;;;;10458547;28;21221;-70
2022/10/08 13:31:00;;;;;;;0.45;0.45;;;;;;;;;;10441698;28;20213;-68
2022/10/08 13:36:02;;;;;;;0.60;0.60;;;;;;;;;;10458824;28;20218;-69
2022/10/08 13:41:06;;;;;;;1.65;0.50;;;;;;;;;;10456770;28;20268;-67
2022/10/08 13:46:07;;;;;;;1.13;0.70;;;;;;;;;;10458528;28;20246;-68
2022/10/08 13:51:09;;;;;;;0.20;0.20;;;;;;;;;;10455294;28;20816;-68
2022/10/08 13:56:10;;;;;;;0.30;0.10;;;;;;;;;;10465581;28;20705;-70
2022/10/08 14:01:11;;;;;;;3.17;0.70;;;;;;;;;;10463771;28;20359;-69
2022/10/08 14:06:12;;;;;;;2.50;0.85;;;;;;;;;;10456029;28;20282;-70
2022/10/08 14:11:16;;;;;;;1.25;0.40;;;;;;;;;;10456566;28;20724;-68
2022/10/08 14:16:17;;;;;;;0.28;0.28;;;;;;;;;;10455229;28;20219;-70
2022/10/08 14:21:18;;;;;;;1.02;0.30;;;;;;;;;;10458402;28;20352;-70
2022/10/08 14:26:19;;;;;;;0.30;0.30;;;;;;;;;;10458459;28;20233;-70
2022/10/08 14:31:21;;;;;;;0.10;0.10;;;;;;;;;;10458715;28;20218;-68
2022/10/08 14:36:24;;;;;;;0.50;0.13;;;;;;;;;;10452358;28;20222;-67
2022/10/08 14:41:25;;;;;;;0.73;0.17;;;;;;;;;;10458048;28;20288;-65
2022/10/08 14:46:26;;;;;;;2.28;0.15;;;;;;;;;;10455622;28;20210;-68
2022/10/08 14:51:33;;;;;;;0.20;0.20;;;;;;;;;;10452497;28;20271;-69
2022/10/08 14:56:34;;;;;;;0.43;0.17;;;;;;;;;;10442157;28;20256;-71
2022/10/08 15:01:35;;;;;;;0.10;0.10;;;;;;;;;;10457747;28;20301;-70
2022/10/08 15:06:37;;;;;;;0.20;0.20;;;;;;;;;;10460586;28;20843;-70
2022/10/08 15:11:39;;;;;;;0.20;0.20;;;;;;;;;;10454386;28;20218;-72
2022/10/08 15:16:40;;;;;;;0.10;0.10;;;;;;;;;;10459113;28;20206;-71
2022/10/08 15:21:41;;;;;;;0.22;0.10;;;;;;;;;;10440225;28;20302;-69
2022/10/08 15:26:42;;;;;;;0.20;0.20;;;;;;;;;;10455512;28;20212;-71
2022/10/08 15:31:43;;;;;;;0.32;0.10;;;;;;;;;;10456530;28;20219;-70
2022/10/08 15:36:44;;;;;;;0.20;0.20;;;;;;;;;;10451078;28;20214;-68
2022/10/08 15:41:50;;;;;;;0.20;0.20;;;;;;;;;;10451359;28;20350;-70
2022/10/08 15:46:57;;;;;;;0.65;0.20;;;;;;;;;;10462627;28;20221;-69
2022/10/08 15:51:59;;;;;;;0.20;0.20;;;;;;;;;;10460093;28;20623;-70
2022/10/08 15:57:00;;;;;;;0.38;0.38;;;;;;;;;;10460398;28;20229;-70
2022/10/08 16:02:01;;;;;;;1.65;0.38;;;;;;;;;;10459464;28;20214;-69
2022/10/08 16:07:02;;;;;;;0.25;0.25;;;;;;;;;;10456867;28;20244;-70
2022/10/08 16:12:04;;;;;;;2.38;0.30;;;;;;;;;;10458241;28;20214;-70
2022/10/08 16:17:05;;;;;;;1.08;0.20;;;;;;;;;;10465274;28;20614;-70
2022/10/08 16:22:07;;;;;;;0.22;0.20;;;;;;;;;;10463635;28;20753;-70
2022/10/08 16:27:08;;;;;;;0.17;0.17;;;;;;;;;;10467483;28;20214;-70
2022/10/08 16:32:10;;;;;;;0.40;0.40;;;;;;;;;;10464159;28;20218;-70
2022/10/08 16:37:11;;;;;;;0.85;0.82;;;;;;;;;;10468020;28;20236;-69
2022/10/08 16:42:12;;;;;;;1.70;1.60;;;;;;;;;;10465501;28;20641;-70
2022/10/08 16:47:13;;;;;;;2.38;0.60;;;;;;;;;;10463322;28;20256;-69
2022/10/08 16:52:14;;;;;;;0.88;0.70;;;;;;;;;;10462723;28;20314;-69
2022/10/08 16:57:15;;;;;;;0.30;0.30;;;;;;;;;;10463468;28;20234;-69
2022/10/08 17:02:16;;;;;;;0.50;0.50;;;;;;;;;;10462992;28;20309;-71
2022/10/08 17:07:17;;;;;;;0.98;0.95;;;;;;;;;;10459899;28;20226;-70
2022/10/08 17:12:19;;;;;;;1.98;0.98;;;;;;;;;;10459493;28;20221;-70
2022/10/08 17:17:20;;;;;;;1.90;0.57;;;;;;;;;;10461805;28;20221;-70
2022/10/08 17:22:21;;;;;;;1.67;0.30;;;;;;;;;;10456561;28;20615;-70
2022/10/08 17:27:22;;;;;;;1.27;0.50;;;;;;;;;;10453024;28;20222;-70
2022/10/08 17:32:23;;;;;;;0.30;0.30;;;;;;;;;;10449525;28;20221;-70
2022/10/08 17:37:24;;;;;;;0.40;0.30;;;;;;;;;;10452179;28;20966;-73
2022/10/08 17:42:26;;;;;;;0.50;0.50;;;;;;;;;;10437799;28;20348;-72
2022/10/08 17:47:27;;;;;;;0.35;0.35;;;;;;;;;;10451468;28;20328;-73
2022/10/08 17:52:28;;;;;;;3.85;0.68;;;;;;;;;;10456792;28;20259;-73
2022/10/08 17:57:29;;;;;;;0.63;0.43;;;;;;;;;;10450092;28;20237;-72
2022/10/08 18:02:30;;;;;;;1.65;0.40;;;;;;;;;;10449502;28;20217;-71
2022/10/08 18:07:31;;;;;;;0.60;0.60;;;;;;;;;;10456867;28;20222;-72
2022/10/08 18:12:32;;;;;;;1.77;0.55;;;;;;;;;;10460520;28;20793;-72
2022/10/08 18:17:33;;;;;;;3.40;0.47;;;;;;;;;;10461284;28;20217;-72
2022/10/08 18:22:34;;;;;;;0.43;0.35;;;;;;;;;;10461132;28;20403;-70
2022/10/08 18:27:36;;;;;;;2.03;0.60;;;;;;;;;;10450223;28;20226;-70
2022/10/08 18:32:37;;;;;;;0.50;0.30;;;;;;;;;;10455001;28;20218;-71
2022/10/08 18:37:38;;;;;;;1.80;0.50;;;;;;;;;;10454296;28;20741;-75
2022/10/08 18:42:39;;;;;;;0.40;0.40;;;;;;;;;;10454589;28;20226;-71
2022/10/08 18:47:40;;;;;;;3.13;0.60;;;;;;;;;;10452601;28;20311;-75
2022/10/08 18:52:41;;;;;;;0.60;0.60;;;;;;;;;;10436835;28;20758;-74
2022/10/08 18:57:43;;;;;;;0.43;0.30;;;;;;;;;;10454160;28;20226;-74
2022/10/08 19:02:44;;;;;;;0.50;0.40;;;;;;;;;;10455052;28;20213;-73
2022/10/08 19:07:45;;;;;;;0.38;0.38;;;;;;;;;;10452695;28;20867;-71
2022/10/08 19:12:47;;;;;;;2.08;0.52;;;;;;;;;;10457482;28;20226;-71
2022/10/08 19:17:48;;;;;;;0.85;0.57;;;;;;;;;;10454798;28;20218;-73
2022/10/08 19:22:49;;;;;;;2.92;0.60;;;;;;;;;;10454092;28;20716;-73
2022/10/08 19:27:50;;;;;;;4.57;0.77;;;;;;;;;;10454717;28;20214;-70
2022/10/08 19:32:51;;;;;;;1.52;0.60;;;;;;;;;;10439855;28;20222;-71
2022/10/08 19:37:52;;;;;;;1.70;0.70;;;;;;;;;;10454801;28;20242;-70
2022/10/08 19:42:54;;;;;;;0.47;0.40;;;;;;;;;;10428117;28;20276;-70
2022/10/08 19:47:55;;;;;;;2.70;1.35;;;;;;;;;;10454031;28;20318;-70
2022/10/08 19:52:56;;;;;;;2.70;0.82;;;;;;;;;;10460942;28;20212;-69
2022/10/08 19:57:57;;;;;;;0.63;0.30;;;;;;;;;;10460238;28;20207;-71
2022/10/08 20:02:58;;;;;;;1.17;0.73;;;;;;;;;;10467138;28;20693;-65
2022/10/08 20:07:59;;;;;;;3.55;0.50;;;;;;;;;;10463559;28;20242;-69
2022/10/08 20:13:00;;;;;;;2.03;0.50;;;;;;;;;;10459524;28;20222;-69
2022/10/08 20:18:01;;;;;;;1.17;0.43;;;;;;;;;;10467870;28;20306;-69
2022/10/08 20:23:03;;;;;;;3.03;0.40;;;;;;;;;;10460388;28;20222;-69
2022/10/08 20:28:04;;;;;;;2.65;0.60;;;;;;;;;;10457022;28;20237;-70
2022/10/08 20:33:05;;;;;;;1.75;0.50;;;;;;;;;;10457250;28;20230;-69
2022/10/08 20:38:06;;;;;;;0.82;0.50;;;;;;;;;;10455277;28;20218;-69
2022/10/08 20:43:07;;;;;;;1.17;0.60;;;;;;;;;;10457549;28;20229;-69
2022/10/08 20:48:08;;;;;;;1.00;0.38;;;;;;;;;;10453976;28;20279;-70
2022/10/08 20:53:09;;;;;;;0.52;0.52;;;;;;;;;;10456567;28;20224;-71
2022/10/08 20:58:10;;;;;;;0.30;0.30;;;;;;;;;;10454025;28;20222;-70
2022/10/08 21:03:11;;;;;;;0.88;0.88;;;;;;;;;;10453479;28;20296;-70
2022/10/08 21:08:12;;;;;;;0.32;0.32;;;;;;;;;;10456600;28;20227;-70
2022/10/08 21:13:13;;;;;;;1.35;0.50;;;;;;;;;;10458341;28;20225;-70
2022/10/08 21:18:14;;;;;;;1.40;1.25;;;;;;;;;;10462278;28;20233;-70
2022/10/08 21:23:16;;;;;;;2.03;0.88;;;;;;;;;;10453352;28;20361;-70
2022/10/08 21:28:17;;;;;;;0.85;0.70;;;;;;;;;;10454157;28;20221;-70
2022/10/08 21:33:18;;;;;;;0.40;0.32;;;;;;;;;;10457049;28;20214;-70
2022/10/08 21:38:19;;;;;;;1.17;0.70;;;;;;;;;;10458635;28;20271;-71
2022/10/08 21:43:20;;;;;;;0.82;0.77;;;;;;;;;;10458404;28;20226;-71
2022/10/08 21:48:22;;;;;;;2.53;0.63;;;;;;;;;;10456190;28;20246;-71
2022/10/08 21:53:24;;;;;;;0.50;0.45;;;;;;;;;;10453902;28;20706;-71
2022/10/08 21:58:26;;;;;;;2.20;0.50;;;;;;;;;;10456454;28;20280;-71
2022/10/08 22:03:27;;;;;;;0.38;0.38;;;;;;;;;;10455363;28;20214;-70
2022/10/08 22:08:30;;;;;;;0.80;0.40;;;;;;;;;;10450711;28;20219;-71
2022/10/08 22:13:31;;;;;;;0.65;0.40;;;;;;;;;;10458050;28;20771;-71
2022/10/08 22:18:33;;;;;;;1.60;0.40;;;;;;;;;;10461832;28;20228;-71
2022/10/08 22:23:35;;;;;;;2.30;0.30;;;;;;;;;;10438309;28;20322;-71
2022/10/08 22:28:36;;;;;;;3.33;0.30;;;;;;;;;;10452923;28;20823;-71
2022/10/08 22:33:37;;;;;;;0.55;0.30;;;;;;;;;;10452941;28;20221;-71
2022/10/08 22:38:39;;;;;;;1.42;0.30;;;;;;;;;;10451099;28;20218;-71
2022/10/08 22:43:40;;;;;;;0.35;0.35;;;;;;;;;;10451312;28;20222;-71
2022/10/08 22:48:42;;;;;;;0.38;0.38;;;;;;;;;;10454344;28;20261;-71
2022/10/08 22:53:43;;;;;;;0.40;0.40;;;;;;;;;;10450612;28;20241;-71
2022/10/08 22:58:44;;;;;;;2.38;0.50;;;;;;;;;;10453507;28;20226;-71
2022/10/08 23:03:46;;;;;;;1.13;0.50;;;;;;;;;;10453738;28;20301;-71
2022/10/08 23:08:48;;;;;;;3.50;0.47;;;;;;;;;;10456215;28;20218;-71
2022/10/08 23:13:52;;;;;;;0.47;0.30;;;;;;;;;;10453371;28;20219;-71
2022/10/08 23:18:55;;;;;;;0.30;0.30;;;;;;;;;;10457656;28;20230;-71
2022/10/08 23:23:56;;;;;;;0.73;0.40;;;;;;;;;;10455832;28;20633;-71
2022/10/08 23:28:58;;;;;;;0.60;0.60;;;;;;;;;;10461362;28;20267;-71
2022/10/08 23:33:59;;;;;;;1.48;0.43;;;;;;;;;;10467190;28;20218;-71
2022/10/08 23:39:01;;;;;;;0.85;0.35;;;;;;;;;;10469881;28;20308;-71
2022/10/08 23:44:02;;;;;;;1.35;0.35;;;;;;;;;;10462197;28;20566;-71
2022/10/08 23:49:03;;;;;;;0.77;0.40;;;;;;;;;;10459579;28;20214;-70
2022/10/08 23:54:04;;;;;;;0.65;0.50;;;;;;;;;;10459466;28;20238;-68
2022/10/08 23:59:06;;;;;;;1.20;0.40;;;;;;;;;;10460381;28;20219;-70
